CYMX - Montreal International (Mirabel) Airport

Pirep is a free, collaborative database of all public and private airports located within the United States. All pilots are welcome to contribute, edit, and improve any airport they have local knowledge about, no registration required.
Are you familiar with this airport? Help out other pilots by adding your local knowledge.
Uploaded photos will be licensed under a CC BY-SA 4.0 license. Please only upload photos you have the rights to use.
Tags
Public
Undocu­mented
METAR / TAF
Edit Tags
Food
Camping
Lodging
Car Rental
Bicycles
Swimming
Golfing
Fishing
Hot Springs
Museum
Flying Clubs
Airpark
Upcoming Events
No upcoming events. Is anything happening here soon?
*
*
*

Where exactly on/near the airport is this event taking place?

Is there a webpage with more information for this event?

Who should be contacted for more information?

What is this event all about?

Repeat every
Description
Transient Parking
Fuel Location
Landing & Tie-down Fees
Crew Car Availability
Flying Clubs
WiFi Access
Airport Statistics
Location: Montréal, Quebec
Elevation: 270ft
Runway 06/24: 12,000ft
Runway 11/29: 8,852ft
Warning: This airport was imported from a non-authoritative source. It's public/private status may not be accurate.
Access: Open to the public
Current Weather — VFR
  • Weather data is strictly informational and not for flight planning purposes.
  • METAR
    2024-05-26 08:00:00 EDT
    Ceiling Wind Temperature Dewpoint Weather Visbility
    Sky clear Variable 60°F 51°F N/A 45SM
    Clouds: Few @ 12,000ft, Scattered @ 25,000ft
    Raw: CYMX 261200Z VRB02KT 45SM FEW120 SCT250 16/11 A2995 RMK AC1CI3 AC TR SLP145
  • TAF
    2024-05-26 08:00:00 EDT – 2024-05-26 11:00:00 EDT
    Ceiling Wind Weather Visbility
    Sky clear Variable N/A 6SM
    Clouds: Few @ 4,000ft, Few @ 12,000ft
    Raw: TAF CYMX 261140Z 2612/2712 VRB03KT P6SM FEW040 FEW120 FM261500 17005KT P6SM BKN040 BECMG 2621/2623 SKC FM270500 05005KT P6SM SCT100 BKN250 FM271100 05006KT P6SM BKN030 BKN090 OVC200 RMK NXT FCST BY 261800Z
  • TAF
    2024-05-26 11:00:00 EDT – 2024-05-26 17:00:00 EDT
    Ceiling Wind Weather Visbility
    4,000ft 170° @ 5kt N/A 6SM
    Clouds: Broken @ 4,000ft
    Raw: TAF CYMX 261140Z 2612/2712 VRB03KT P6SM FEW040 FEW120 FM261500 17005KT P6SM BKN040 BECMG 2621/2623 SKC FM270500 05005KT P6SM SCT100 BKN250 FM271100 05006KT P6SM BKN030 BKN090 OVC200 RMK NXT FCST BY 261800Z
  • TAF
    2024-05-26 17:00:00 EDT – 2024-05-27 01:00:00 EDT
    Ceiling Wind Weather Visbility
    Sky clear 170° @ 5kt N/A 6SM
    Clouds: @ ft
    Raw: TAF CYMX 261140Z 2612/2712 VRB03KT P6SM FEW040 FEW120 FM261500 17005KT P6SM BKN040 BECMG 2621/2623 SKC FM270500 05005KT P6SM SCT100 BKN250 FM271100 05006KT P6SM BKN030 BKN090 OVC200 RMK NXT FCST BY 261800Z
  • TAF
    2024-05-27 01:00:00 EDT – 2024-05-27 07:00:00 EDT
    Ceiling Wind Weather Visbility
    25,000ft 50° @ 5kt N/A 6SM
    Clouds: Scattered @ 10,000ft, Broken @ 25,000ft
    Raw: TAF CYMX 261140Z 2612/2712 VRB03KT P6SM FEW040 FEW120 FM261500 17005KT P6SM BKN040 BECMG 2621/2623 SKC FM270500 05005KT P6SM SCT100 BKN250 FM271100 05006KT P6SM BKN030 BKN090 OVC200 RMK NXT FCST BY 261800Z
  • TAF
    2024-05-27 07:00:00 EDT – 2024-05-27 08:00:00 EDT
    Ceiling Wind Weather Visbility
    3,000ft 50° @ 6kt N/A 6SM
    Clouds: Broken @ 3,000ft, Broken @ 9,000ft, Overcast @ 20,000ft
    Raw: TAF CYMX 261140Z 2612/2712 VRB03KT P6SM FEW040 FEW120 FM261500 17005KT P6SM BKN040 BECMG 2621/2623 SKC FM270500 05005KT P6SM SCT100 BKN250 FM271100 05006KT P6SM BKN030 BKN090 OVC200 RMK NXT FCST BY 261800Z
Click/tap to add an annotation marker to the map
Airport Webcams
No webcams added yet.
Direct links to live image URLs will be displayed inline on this page. URLs to separate webpages will be linked to.
URL:
Direct links to live image URLs will be displayed inline on this page. URLs to separate webpages will be linked to.
URL:
Comments
Leave a comment What was your experience like at this airport?